Terminal Aerodrome Forecast
Issued by NWS Wilmington, OH

Current Version | Previous Version | Graphics & Text | Print | Product List | Glossary On
Versions: 1 2 3 4 5 6 7 8 9 10 11 12 13 14 15 16 17 18 19 20 21 22
858
FTUS41 KILN 210851 AAA
TAFCMH
TAF AMD
KCMH 210851Z 2109/2206 19004KT P6SM VCTS BKN035CB
     FM211100 25003KT 5SM BR SCT025
     FM211300 35005KT P6SM -SHRA VCTS SCT025CB BKN035
     FM211600 33005KT P6SM BKN035
     FM220000 VRB03KT P6SM SCT035=

USA.gov is the U.S. government's official web portal to all federal, state and local government web resources and services.